Skip Navigation LinksHome page > Weather > Current weather Skip Navigation Links

Current Weather

William P Hobby, Houston

For information only: do not use for flight planning or navigation.
Latest weather
Observation time Sunday, September 20, 2020 7:53 AM CDT
Local time Sunday, September 20, 2020 8:34 AM CDT
Flight conditions Visual Meteorological Conditions
Winds
Wind direction North (10°)
Wind speed 15 mph
Visibility 10 mi.
Sky condition
Ceiling unlimited
Cloud layer few clouds 12,000 ft.
Cloud layer scattered clouds 25,000 ft.
Temperature 70°F
Dewpoint 60°F
Altimeter 29.98 in.Hg
Derived measurements
Relative humidity 71%
Density altitude 935 ft.
Sea-level pressure 29.99 in.Hg
Remarks
Automated weather observing station with precipitation discriminator.
METAR KHOU 201253Z 01013KT 10SM FEW120 SCT250 21/16 A2998 RMK AO2 SLP157 T02110156

Settings

Location code

InnerDrive.Weather 4.0.6770.0 Release CLR 4.0.30319.42000
Copyright ©2018 Inner Drive Technology. All rights reserved. Portions Copyright ©1986-2018 David Braverman.

Find weather

Site navigation


Skip Navigation Links

Place info

Page info

PayPal - The safer, easier way to pay online!

Return home.

Copyright ©2020 Inner Drive Technology. Purveyors of fine, hand-crafted computer software. Page printed 2020-09-20T13:34:18 UTC.